createdAt,value
2023-05-13T00:00:19.597Z,52.70
2023-05-13T00:02:46.373Z,47.60
2023-05-13T00:05:13.008Z,45.30
2023-05-13T00:07:41.515Z,45.40
2023-05-13T00:10:08.575Z,55.30
2023-05-13T00:12:35.098Z,45.30
2023-05-13T00:15:01.650Z,46.20
2023-05-13T00:17:28.210Z,46.20
2023-05-13T00:19:54.792Z,49.10
2023-05-13T00:22:21.377Z,57.60
2023-05-13T00:24:47.963Z,56.90
2023-05-13T00:27:14.485Z,53.50
2023-05-13T00:29:40.995Z,45.00
2023-05-13T00:32:07.691Z,45.00
2023-05-13T00:34:34.984Z,47.90
2023-05-13T00:37:01.523Z,48.70
2023-05-13T00:39:29.333Z,45.90
2023-05-13T00:41:56.282Z,48.20
2023-05-13T00:44:22.827Z,55.00
2023-05-13T00:46:49.930Z,47.40
2023-05-13T00:49:16.510Z,53.60
2023-05-13T00:51:43.284Z,50.90
2023-05-13T00:54:09.816Z,44.40
2023-05-13T00:56:39.067Z,38.60
2023-05-13T00:59:05.683Z,45.20
2023-05-13T01:02:09.453Z,40.90
2023-05-13T01:04:42.112Z,39.10
2023-05-13T01:07:29.629Z,38.80
2023-05-13T01:10:02.474Z,37.60
2023-05-13T01:12:47.091Z,37.50
2023-05-13T01:15:22.158Z,34.50
2023-05-13T01:17:57.408Z,38.80
2023-05-13T01:20:24.835Z,33.40
2023-05-13T01:22:51.387Z,34.70
2023-05-13T01:25:18.387Z,37.20
2023-05-13T01:27:45.288Z,37.40
2023-05-13T01:30:12.904Z,37.30
2023-05-13T01:32:40.271Z,34.00
2023-05-13T01:35:09.486Z,32.90
2023-05-13T01:37:38.903Z,34.90
2023-05-13T01:40:17.195Z,32.30
2023-05-13T01:42:51.464Z,31.90
2023-05-13T01:45:18.331Z,34.20
2023-05-13T01:47:45.044Z,32.60
2023-05-13T01:50:11.823Z,33.50
2023-05-13T01:52:40.460Z,34.20
2023-05-13T01:55:07.582Z,42.00
2023-05-13T01:57:34.261Z,28.90
2023-05-13T02:00:00.878Z,29.20
2023-05-13T02:02:27.434Z,30.90
2023-05-13T02:04:55.478Z,33.50
2023-05-13T02:07:22.625Z,33.20
2023-05-13T02:09:50.162Z,33.50
2023-05-13T02:12:16.682Z,34.60
2023-05-13T02:14:43.256Z,32.90
2023-05-13T02:17:15.307Z,31.20
2023-05-13T02:19:42.175Z,35.30
2023-05-13T02:22:08.793Z,35.90
2023-05-13T02:24:36.172Z,30.40
2023-05-13T02:27:03.118Z,27.60
2023-05-13T02:29:29.770Z,30.90
2023-05-13T02:31:56.420Z,31.90
2023-05-13T02:34:23.093Z,34.50
2023-05-13T02:36:49.722Z,31.20
2023-05-13T02:39:16.359Z,29.30
2023-05-13T02:41:44.420Z,26.00
2023-05-13T02:44:11.408Z,24.70
2023-05-13T02:46:37.991Z,22.60
2023-05-13T02:49:04.881Z,23.40
2023-05-13T02:51:32.603Z,23.40
2023-05-13T02:53:59.158Z,23.30
2023-05-13T02:56:26.217Z,25.00
2023-05-13T02:58:52.798Z,23.90
2023-05-13T03:01:19.442Z,31.90
2023-05-13T03:03:46.278Z,26.00
2023-05-13T03:06:12.857Z,24.70
2023-05-13T03:08:39.389Z,23.30
2023-05-13T03:11:06.060Z,25.40
2023-05-13T03:13:32.686Z,24.30
2023-05-13T03:15:59.182Z,31.80
2023-05-13T03:18:25.948Z,25.20
2023-05-13T03:20:53.439Z,22.10
2023-05-13T03:23:20.008Z,21.70
2023-05-13T03:25:47.302Z,20.50
2023-05-13T03:28:13.938Z,25.10
2023-05-13T03:30:43.473Z,22.00
2023-05-13T03:33:14.012Z,19.90
2023-05-13T03:35:40.749Z,25.70
2023-05-13T03:38:07.642Z,18.50
2023-05-13T03:40:35.965Z,23.50
2023-05-13T03:43:02.469Z,24.50
2023-05-13T03:45:29.291Z,19.20
2023-05-13T03:47:58.380Z,22.30
2023-05-13T03:50:25.238Z,21.20
2023-05-13T03:52:51.992Z,22.30
2023-05-13T03:55:18.866Z,20.50
2023-05-13T03:57:48.458Z,22.30
2023-05-13T04:00:16.759Z,28.90
2023-05-13T04:02:43.773Z,22.60
2023-05-13T04:05:11.615Z,20.70
2023-05-13T04:07:38.197Z,21.80
2023-05-13T04:10:05.416Z,22.20
2023-05-13T04:12:33.340Z,22.90
2023-05-13T04:15:00.642Z,21.20
2023-05-13T04:17:27.766Z,22.20
2023-05-13T04:19:54.932Z,22.70
2023-05-13T04:22:21.837Z,18.30
2023-05-13T04:24:52.016Z,24.90
2023-05-13T04:27:18.747Z,41.80
2023-05-13T04:29:45.763Z,29.20
2023-05-13T04:32:16.166Z,24.00
2023-05-13T04:34:43.381Z,33.40
2023-05-13T04:37:09.956Z,21.40
2023-05-13T04:39:36.464Z,22.10
2023-05-13T04:42:03.136Z,20.00
2023-05-13T04:44:29.903Z,18.40
2023-05-13T04:46:56.396Z,20.40
2023-05-13T04:49:23.076Z,20.30
2023-05-13T04:51:50.381Z,15.90
2023-05-13T04:54:18.274Z,19.60
2023-05-13T04:56:45.013Z,19.40
2023-05-13T04:59:11.616Z,17.10
2023-05-13T05:01:38.698Z,17.50
2023-05-13T05:04:06.240Z,15.50
2023-05-13T05:06:34.082Z,14.20
2023-05-13T05:09:01.168Z,16.40
2023-05-13T05:11:27.746Z,17.60
2023-05-13T05:13:54.324Z,17.00
2023-05-13T05:16:20.982Z,16.90
2023-05-13T05:18:48.147Z,15.30
2023-05-13T05:21:18.054Z,21.70
2023-05-13T05:23:44.576Z,21.00
2023-05-13T05:26:12.366Z,18.80
2023-05-13T05:28:43.191Z,15.40
2023-05-13T05:31:10.108Z,15.30
2023-05-13T05:33:37.516Z,14.50
2023-05-13T05:36:06.737Z,12.90
2023-05-13T05:38:34.417Z,14.50
2023-05-13T05:41:01.214Z,15.80
2023-05-13T05:43:28.004Z,10.60
2023-05-13T05:45:54.572Z,13.00
2023-05-13T05:48:22.022Z,14.30
2023-05-13T05:50:49.306Z,15.80
2023-05-13T05:53:22.457Z,14.30
2023-05-13T05:55:51.075Z,16.40
2023-05-13T05:58:18.927Z,20.70
2023-05-13T06:00:45.713Z,19.70
2023-05-13T06:03:12.424Z,14.70
2023-05-13T06:05:39.282Z,12.00
2023-05-13T06:08:05.862Z,12.20
2023-05-13T06:10:32.424Z,10.20
2023-05-13T06:12:59.022Z,11.50
2023-05-13T06:15:25.713Z,11.20
2023-05-13T06:17:52.316Z,14.30
2023-05-13T06:20:19.105Z,13.50
2023-05-13T06:22:45.835Z,10.40
2023-05-13T06:25:12.425Z,9.00
2023-05-13T06:27:40.677Z,10.30
2023-05-13T06:30:07.752Z,10.70
2023-05-13T06:32:34.428Z,7.70
2023-05-13T06:35:01.003Z,8.60
2023-05-13T06:37:28.044Z,8.90
2023-05-13T06:39:54.791Z,12.10
2023-05-13T06:42:21.526Z,13.40
2023-05-13T06:44:55.332Z,8.20
2023-05-13T06:47:27.142Z,7.80
2023-05-13T06:49:53.702Z,7.70
2023-05-13T06:52:20.282Z,8.60
2023-05-13T06:54:47.022Z,13.20
2023-05-13T06:57:13.624Z,8.00
2023-05-13T06:59:40.150Z,6.80
2023-05-13T07:02:09.686Z,10.20
2023-05-13T07:04:37.036Z,9.20
2023-05-13T07:07:03.668Z,6.80
2023-05-13T07:09:30.285Z,6.40
2023-05-13T07:11:56.972Z,8.60
2023-05-13T07:14:25.300Z,6.20
2023-05-13T07:16:51.911Z,5.30
2023-05-13T07:19:18.633Z,6.10
2023-05-13T07:21:45.264Z,6.00
2023-05-13T07:24:11.903Z,5.70
2023-05-13T07:26:39.130Z,6.80
2023-05-13T07:29:06.180Z,6.70
2023-05-13T07:31:32.824Z,5.80
2023-05-13T07:33:59.650Z,3.30
2023-05-13T07:36:26.492Z,4.80
2023-05-13T07:38:53.534Z,4.90
2023-05-13T07:41:20.320Z,4.40
2023-05-13T07:43:47.083Z,4.40
2023-05-13T07:46:13.712Z,6.30
2023-05-13T07:48:40.203Z,5.00
2023-05-13T07:51:07.002Z,3.30
2023-05-13T07:53:33.848Z,4.60
2023-05-13T07:56:00.707Z,3.40
2023-05-13T07:58:27.225Z,7.50
2023-05-13T08:00:53.920Z,4.60
2023-05-13T08:03:20.536Z,3.30
2023-05-13T08:05:48.092Z,2.50
2023-05-13T08:08:14.744Z,2.70
2023-05-13T08:10:41.279Z,2.60
2023-05-13T08:13:07.864Z,3.20
2023-05-13T08:15:34.420Z,2.10
2023-05-13T08:18:01.092Z,4.20
2023-05-13T08:20:30.011Z,3.60
2023-05-13T08:22:58.197Z,3.40
2023-05-13T08:25:25.290Z,4.80
2023-05-13T08:27:51.967Z,2.90
2023-05-13T08:30:18.549Z,6.00
2023-05-13T08:32:45.497Z,2.50
2023-05-13T08:35:12.134Z,3.60
2023-05-13T08:37:38.673Z,4.20
2023-05-13T08:40:08.328Z,2.80
2023-05-13T08:42:38.338Z,3.70
2023-05-13T08:45:05.755Z,2.50
2023-05-13T08:47:55.706Z,2.00
2023-05-13T08:50:22.736Z,2.60
2023-05-13T08:52:53.972Z,3.60
2023-05-13T08:55:21.516Z,2.40
2023-05-13T08:57:48.243Z,5.20
2023-05-13T09:00:15.085Z,5.80
2023-05-13T09:02:41.964Z,1.80
2023-05-13T09:05:10.169Z,4.90
2023-05-13T09:07:38.085Z,3.00
2023-05-13T09:10:06.201Z,1.80
2023-05-13T09:12:41.944Z,5.30
2023-05-13T09:15:09.879Z,5.80
2023-05-13T09:17:42.522Z,2.00
2023-05-13T09:20:11.188Z,5.90
2023-05-13T09:22:52.951Z,3.20
2023-05-13T09:25:24.106Z,4.30
2023-05-13T09:27:57.758Z,5.70
2023-05-13T09:30:29.272Z,2.00
2023-05-13T09:33:11.053Z,3.00
2023-05-13T09:35:43.311Z,3.00
2023-05-13T09:38:17.824Z,3.20
2023-05-13T09:40:58.754Z,2.80
2023-05-13T09:43:30.770Z,4.00
2023-05-13T09:46:01.282Z,4.20
2023-05-13T09:48:29.835Z,6.20
2023-05-13T09:50:58.267Z,8.20
2023-05-13T09:53:28.626Z,5.30
2023-05-13T09:55:57.707Z,2.50
2023-05-13T09:58:28.131Z,3.40
2023-05-13T10:00:55.512Z,2.00
2023-05-13T10:03:22.508Z,7.20
2023-05-13T10:05:50.110Z,3.80
2023-05-13T10:08:18.264Z,2.90
2023-05-13T10:10:47.014Z,4.10
2023-05-13T10:13:19.332Z,6.80
2023-05-13T10:15:51.562Z,3.90
2023-05-13T10:18:20.142Z,3.40
2023-05-13T10:20:47.806Z,3.10
2023-05-13T10:23:14.472Z,2.40
2023-05-13T10:25:42.783Z,3.60
2023-05-13T10:28:10.645Z,3.70
2023-05-13T10:30:38.876Z,5.10
2023-05-13T10:33:05.845Z,4.00
2023-05-13T10:35:38.592Z,9.20
2023-05-13T10:38:15.625Z,4.00
2023-05-13T10:40:54.051Z,2.40
2023-05-13T10:43:22.145Z,5.40
2023-05-13T10:45:50.983Z,4.20
2023-05-13T10:48:18.866Z,4.00
2023-05-13T10:50:57.093Z,5.20
2023-05-13T10:53:26.020Z,2.80
2023-05-13T10:55:57.263Z,3.50
2023-05-13T10:58:39.774Z,3.70
2023-05-13T11:01:17.904Z,3.40
2023-05-13T11:03:56.811Z,4.80
2023-05-13T11:06:29.312Z,6.40
2023-05-13T11:08:56.344Z,5.40
2023-05-13T11:11:23.002Z,3.90
2023-05-13T11:13:54.835Z,3.90
2023-05-13T11:16:23.158Z,2.40
2023-05-13T11:18:51.783Z,2.50
2023-05-13T11:21:30.105Z,5.70
2023-05-13T11:23:59.096Z,20.00
2023-05-13T11:26:25.675Z,4.70
2023-05-13T11:28:59.788Z,5.70
2023-05-13T11:31:28.416Z,6.60
2023-05-13T11:34:15.050Z,4.50
2023-05-13T11:36:44.768Z,3.40
2023-05-13T11:39:20.261Z,4.30
2023-05-13T11:41:51.520Z,4.80
2023-05-13T11:44:20.820Z,2.30
2023-05-13T11:46:58.730Z,4.70
2023-05-13T11:49:42.818Z,4.40
2023-05-13T11:52:13.347Z,6.20
2023-05-13T11:54:44.342Z,3.20
2023-05-13T11:57:17.192Z,2.40
2023-05-13T12:00:06.863Z,2.30
2023-05-13T12:02:37.453Z,6.10
2023-05-13T12:05:06.310Z,3.30
2023-05-13T12:07:34.179Z,5.90
2023-05-13T12:10:03.853Z,2.40
2023-05-13T12:12:32.922Z,4.40
2023-05-13T12:15:01.901Z,3.00
2023-05-13T12:17:29.062Z,3.20
2023-05-13T12:20:12.862Z,3.10
2023-05-13T12:22:42.510Z,3.40
2023-05-13T12:28:21.707Z,4.10
2023-05-13T12:30:56.872Z,2.80
2023-05-13T12:33:31.408Z,2.90
2023-05-13T12:36:35.891Z,5.60
2023-05-13T12:39:10.863Z,2.80
2023-05-13T12:41:39.312Z,5.90
2023-05-13T12:44:15.136Z,7.70
2023-05-13T12:46:52.850Z,4.40
2023-05-13T12:49:19.835Z,1.70
2023-05-13T12:51:46.479Z,5.50
2023-05-13T12:54:13.226Z,2.20
2023-05-13T12:56:42.773Z,1.90
2023-05-13T13:01:37.239Z,4.40
2023-05-13T13:04:04.059Z,2.60
2023-05-13T13:06:32.372Z,5.20
2023-05-13T13:08:59.054Z,2.20
2023-05-13T13:11:25.667Z,4.30
2023-05-13T13:13:52.172Z,5.90
2023-05-13T13:16:19.028Z,5.90
2023-05-13T13:18:45.769Z,2.40
2023-05-13T13:21:12.549Z,2.80
2023-05-13T13:23:39.387Z,4.80
2023-05-13T13:26:05.989Z,9.60
2023-05-13T13:28:32.676Z,3.10
2023-05-13T13:30:59.953Z,8.00
2023-05-13T13:33:26.659Z,6.00
2023-05-13T13:35:53.424Z,6.90
2023-05-13T13:38:19.976Z,5.90
2023-05-13T13:40:46.633Z,3.60
2023-05-13T13:43:13.245Z,8.20
2023-05-13T13:45:40.058Z,2.90
2023-05-13T13:48:06.988Z,5.90
2023-05-13T13:50:34.004Z,6.30
2023-05-13T13:53:00.590Z,4.70
2023-05-13T13:55:27.112Z,3.00
2023-05-13T13:57:53.743Z,3.50
2023-05-13T14:00:20.806Z,3.90
2023-05-13T14:02:48.354Z,4.20
2023-05-13T14:05:15.954Z,4.60
2023-05-13T14:07:42.637Z,3.10
2023-05-13T14:10:09.923Z,6.10
2023-05-13T14:12:37.322Z,2.30
2023-05-13T14:15:04.245Z,3.30
2023-05-13T14:17:30.953Z,5.10
2023-05-13T14:19:57.558Z,2.50
2023-05-13T14:22:24.521Z,2.50
2023-05-13T14:24:54.098Z,5.20
2023-05-13T14:27:21.621Z,4.30
2023-05-13T14:29:49.090Z,2.60
2023-05-13T14:32:16.215Z,38.30
2023-05-13T14:34:43.114Z,6.80
2023-05-13T14:37:09.778Z,8.90
2023-05-13T14:39:36.926Z,5.20
2023-05-13T14:42:03.988Z,5.80
2023-05-13T14:44:30.628Z,6.60
2023-05-13T14:46:57.291Z,5.80
2023-05-13T14:49:23.997Z,6.60
2023-05-13T14:51:50.730Z,5.20
2023-05-13T14:54:17.861Z,4.70
2023-05-13T14:56:45.053Z,8.50
2023-05-13T14:59:11.824Z,9.40
2023-05-13T15:01:38.705Z,20.90
2023-05-13T15:04:05.866Z,75.10
2023-05-13T15:06:32.883Z,98.00
2023-05-13T15:08:59.596Z,14.90
2023-05-13T15:11:30.558Z,7.10
2023-05-13T15:13:57.122Z,6.40
2023-05-13T15:16:23.846Z,6.00
2023-05-13T15:18:50.772Z,5.80
2023-05-13T15:21:17.854Z,3.50
2023-05-13T15:23:44.652Z,4.20
2023-05-13T15:26:11.407Z,8.90
2023-05-13T15:28:37.987Z,3.70
2023-05-13T15:31:05.700Z,5.30
2023-05-13T15:33:35.760Z,4.60
2023-05-13T15:36:02.466Z,4.40
2023-05-13T15:38:29.018Z,5.40
2023-05-13T15:40:55.538Z,31.60
2023-05-13T15:43:22.180Z,46.90
2023-05-13T15:45:50.052Z,22.70
2023-05-13T15:48:17.479Z,6.70
2023-05-13T15:50:44.631Z,5.50
2023-05-13T15:53:11.211Z,4.90
2023-05-13T15:55:39.368Z,6.20
2023-05-13T15:58:06.881Z,3.90
2023-05-13T16:00:33.664Z,5.30
2023-05-13T16:03:00.700Z,5.70
2023-05-13T16:05:27.392Z,3.50
2023-05-13T16:07:54.269Z,8.30
2023-05-13T16:10:21.023Z,14.70
2023-05-13T16:12:47.638Z,6.00
2023-05-13T16:15:14.264Z,10.40
2023-05-13T16:17:40.960Z,4.20
2023-05-13T16:20:10.134Z,6.20
2023-05-13T16:22:38.246Z,4.00
2023-05-13T16:25:09.992Z,3.40
2023-05-13T16:27:37.965Z,5.00
2023-05-13T16:30:07.220Z,3.50
2023-05-13T16:32:34.925Z,6.70
2023-05-13T16:35:02.123Z,5.00
2023-05-13T16:37:29.088Z,3.10
2023-05-13T16:39:55.727Z,4.90
2023-05-13T16:42:22.556Z,4.90
2023-05-13T16:44:49.305Z,3.80
2023-05-13T16:47:15.917Z,4.30
2023-05-13T16:49:42.709Z,3.00
2023-05-13T16:52:09.337Z,6.60
2023-05-13T16:54:36.013Z,8.20
2023-05-13T16:57:02.725Z,4.70
2023-05-13T16:59:29.378Z,6.70
2023-05-13T17:01:56.139Z,5.80
2023-05-13T17:04:22.837Z,4.50
2023-05-13T17:06:49.566Z,3.60
2023-05-13T17:09:16.412Z,9.80
2023-05-13T17:11:43.342Z,10.10
2023-05-13T17:14:10.109Z,4.00
2023-05-13T17:16:37.090Z,8.10
2023-05-13T17:19:03.920Z,6.30
2023-05-13T17:21:30.503Z,6.50
2023-05-13T17:23:57.001Z,6.30
2023-05-13T17:26:23.570Z,5.90
2023-05-13T17:28:50.275Z,5.40
2023-05-13T17:31:16.923Z,4.40
2023-05-13T17:33:43.887Z,9.30
2023-05-13T17:36:10.950Z,5.00
2023-05-13T17:38:38.138Z,9.80
2023-05-13T17:41:04.987Z,18.40
2023-05-13T17:43:31.554Z,29.80
2023-05-13T17:45:58.502Z,16.40
2023-05-13T17:48:26.861Z,18.80
2023-05-13T17:50:53.784Z,63.20
2023-05-13T17:53:20.921Z,26.30
2023-05-13T17:55:48.634Z,18.90
2023-05-13T17:58:18.216Z,16.10
2023-05-13T18:00:44.823Z,18.10
2023-05-13T18:03:11.418Z,12.60
2023-05-13T18:05:38.141Z,18.70
2023-05-13T18:08:04.977Z,13.00
2023-05-13T18:10:31.527Z,14.60
2023-05-13T18:12:58.091Z,21.60
2023-05-13T18:15:24.672Z,25.40
2023-05-13T18:17:51.282Z,19.70
2023-05-13T18:20:18.562Z,22.90
2023-05-13T18:22:45.270Z,21.30
2023-05-13T18:25:11.992Z,21.30
2023-05-13T18:27:38.533Z,31.20
2023-05-13T18:30:06.642Z,32.30
2023-05-13T18:32:33.154Z,34.10
2023-05-13T18:34:59.944Z,35.00
2023-05-13T18:37:26.677Z,36.70
2023-05-13T18:39:53.371Z,39.90
2023-05-13T18:42:19.995Z,39.40
2023-05-13T18:44:46.613Z,47.90
2023-05-13T18:47:13.223Z,41.40
2023-05-13T18:49:40.066Z,60.40
2023-05-13T18:52:06.969Z,48.70
2023-05-13T18:54:33.606Z,305.20
2023-05-13T18:57:00.446Z,92.10
2023-05-13T18:59:28.163Z,147.90
2023-05-13T19:01:54.998Z,59.30
2023-05-13T19:04:22.184Z,53.80
2023-05-13T19:06:48.925Z,44.20
2023-05-13T19:09:16.520Z,62.60
2023-05-13T19:11:44.005Z,53.30
2023-05-13T19:14:10.550Z,47.80
2023-05-13T19:16:37.114Z,42.20
2023-05-13T19:19:03.728Z,37.70
2023-05-13T19:21:30.851Z,48.80
2023-05-13T19:23:58.528Z,47.90
2023-05-13T19:26:25.293Z,47.50
2023-05-13T19:28:52.179Z,47.40
2023-05-13T19:31:18.838Z,54.40
2023-05-13T19:33:46.372Z,46.60
2023-05-13T19:36:13.371Z,44.00
2023-05-13T19:38:40.003Z,48.70
2023-05-13T19:41:06.616Z,52.30
2023-05-13T19:43:33.183Z,46.50
2023-05-13T19:45:59.905Z,47.30
2023-05-13T19:48:28.353Z,47.20
2023-05-13T19:50:57.814Z,49.60
2023-05-13T19:53:24.774Z,50.70
2023-05-13T19:55:52.544Z,47.30
2023-05-13T19:58:19.096Z,53.30
2023-05-13T20:00:46.263Z,49.30
2023-05-13T20:03:13.513Z,53.10
2023-05-13T20:05:43.589Z,53.80
2023-05-13T20:10:36.849Z,61.40
2023-05-13T20:13:07.241Z,61.80
2023-05-13T20:15:33.950Z,65.70
2023-05-13T20:18:00.811Z,49.90
2023-05-13T20:20:27.578Z,56.70
2023-05-13T20:22:57.150Z,51.50
2023-05-13T20:25:23.935Z,55.80
2023-05-13T20:27:51.357Z,70.40
2023-05-13T20:30:18.373Z,62.70
2023-05-13T20:32:45.107Z,59.30
2023-05-13T20:35:11.900Z,61.40
2023-05-13T20:37:38.729Z,55.40
2023-05-13T20:40:07.999Z,58.10
2023-05-13T20:42:34.781Z,69.70
2023-05-13T20:45:01.640Z,80.00
2023-05-13T20:47:28.578Z,85.60
2023-05-13T20:49:55.369Z,66.00
2023-05-13T20:52:22.281Z,61.20
2023-05-13T20:54:48.906Z,62.50
2023-05-13T20:57:15.914Z,66.30
2023-05-13T20:59:42.701Z,58.90
2023-05-13T21:02:09.482Z,63.30
2023-05-13T21:04:36.118Z,69.50
2023-05-13T21:07:04.966Z,63.50
2023-05-13T21:09:31.665Z,69.00
2023-05-13T21:11:58.356Z,64.60
2023-05-13T21:14:25.121Z,70.30
2023-05-13T21:16:51.814Z,76.30
2023-05-13T21:19:27.504Z,68.40
2023-05-13T21:21:54.065Z,63.40
2023-05-13T21:24:20.736Z,62.70
2023-05-13T21:26:49.143Z,72.60
2023-05-13T21:29:17.369Z,66.30
2023-05-13T21:31:45.955Z,69.00
2023-05-13T21:34:13.000Z,67.90
2023-05-13T21:36:39.650Z,72.10
2023-05-13T21:39:07.666Z,66.10
2023-05-13T21:41:34.407Z,68.50
2023-05-13T21:44:01.107Z,64.80
2023-05-13T21:46:28.040Z,60.80
2023-05-13T21:48:54.706Z,63.80
2023-05-13T21:51:22.265Z,64.80
2023-05-13T21:53:48.954Z,66.10
2023-05-13T21:56:15.756Z,63.60
2023-05-13T21:58:42.349Z,69.20
2023-05-13T22:01:09.162Z,58.30
2023-05-13T22:03:35.913Z,60.10
2023-05-13T22:06:05.310Z,80.00
2023-05-13T22:08:33.001Z,69.90
2023-05-13T22:11:01.454Z,69.10
2023-05-13T22:13:28.232Z,62.30
2023-05-13T22:15:57.396Z,62.40
2023-05-13T22:18:24.512Z,63.40
2023-05-13T22:20:51.473Z,65.30
2023-05-13T22:23:18.169Z,66.60
2023-05-13T22:25:45.174Z,67.00
2023-05-13T22:28:11.799Z,67.40
2023-05-13T22:30:40.108Z,61.40
2023-05-13T22:33:07.118Z,65.90
2023-05-13T22:35:36.609Z,61.70
2023-05-13T22:38:05.801Z,58.00
2023-05-13T22:40:32.606Z,66.40
2023-05-13T22:42:59.324Z,65.40
2023-05-13T22:45:26.063Z,56.90
2023-05-13T22:47:52.720Z,70.60
2023-05-13T22:50:19.596Z,71.80
2023-05-13T22:52:46.608Z,87.20
2023-05-13T22:55:13.319Z,82.20
2023-05-13T22:57:39.965Z,76.00
2023-05-13T23:00:07.238Z,79.60
2023-05-13T23:02:33.776Z,68.70
2023-05-13T23:05:00.433Z,71.50
2023-05-13T23:07:26.974Z,66.40
2023-05-13T23:09:53.496Z,61.90
2023-05-13T23:12:20.057Z,62.40
2023-05-13T23:14:47.815Z,58.10
2023-05-13T23:17:14.459Z,60.70
2023-05-13T23:19:41.118Z,62.80
2023-05-13T23:22:07.680Z,62.30
2023-05-13T23:24:34.194Z,59.50
2023-05-13T23:27:00.769Z,60.70
2023-05-13T23:29:27.647Z,61.30
2023-05-13T23:31:55.687Z,63.80
2023-05-13T23:34:22.285Z,65.40
2023-05-13T23:36:48.867Z,63.00
2023-05-13T23:39:15.387Z,62.80
2023-05-13T23:41:42.756Z,68.70
2023-05-13T23:44:12.024Z,61.00
2023-05-13T23:46:38.552Z,67.80
2023-05-13T23:49:05.121Z,60.50
2023-05-13T23:51:32.359Z,57.90
2023-05-13T23:53:59.800Z,54.70
2023-05-13T23:56:26.462Z,61.20
2023-05-13T23:58:53.068Z,53.50
